createdAt,value
2023-02-19T00:02:06.947Z,20.90
2023-02-19T00:05:05.607Z,21.45
2023-02-19T00:07:32.512Z,21.75
2023-02-19T00:09:59.518Z,21.13
2023-02-19T00:12:46.951Z,21.75
2023-02-19T00:15:47.939Z,24.92
2023-02-19T00:18:49.946Z,21.52
2023-02-19T00:21:50.906Z,23.20
2023-02-19T00:24:31.569Z,23.88
2023-02-19T00:26:58.492Z,23.92
2023-02-19T00:29:25.643Z,24.75
2023-02-19T00:31:52.671Z,23.70
2023-02-19T00:34:19.670Z,23.60
2023-02-19T00:36:46.626Z,24.95
2023-02-19T00:39:33.929Z,24.42
2023-02-19T00:42:35.912Z,24.08
2023-02-19T00:45:38.927Z,23.48
2023-02-19T00:48:29.948Z,23.55
2023-02-19T00:51:10.870Z,19.60
2023-02-19T00:53:38.049Z,22.75
2023-02-19T00:56:05.355Z,24.02
2023-02-19T00:58:32.325Z,21.83
2023-02-19T01:00:59.408Z,23.13
2023-02-19T01:03:26.661Z,24.42
2023-02-19T01:05:54.580Z,23.33
2023-02-19T01:08:42.954Z,23.67
2023-02-19T01:11:23.511Z,21.98
2023-02-19T01:13:50.486Z,21.75
2023-02-19T01:16:37.985Z,21.73
2023-02-19T01:19:32.385Z,17.77
2023-02-19T01:22:25.955Z,15.23
2023-02-19T01:25:07.223Z,14.73
2023-02-19T01:27:34.259Z,16.92
2023-02-19T01:30:01.355Z,13.77
2023-02-19T01:32:28.331Z,12.98
2023-02-19T01:34:55.294Z,13.30
2023-02-19T01:37:24.148Z,14.20
2023-02-19T01:39:51.188Z,18.88
2023-02-19T01:42:18.080Z,14.10
2023-02-19T01:44:45.319Z,16.75
2023-02-19T01:47:32.958Z,12.40
2023-02-19T01:50:13.847Z,10.38
2023-02-19T01:52:41.381Z,11.70
2023-02-19T01:55:12.510Z,18.92
2023-02-19T01:57:45.355Z,15.98
2023-02-19T02:00:15.745Z,21.42
2023-02-19T02:03:05.969Z,19.85
2023-02-19T02:05:56.016Z,22.00
2023-02-19T02:08:42.515Z,25.73
2023-02-19T02:11:10.111Z,23.30
2023-02-19T02:13:40.355Z,25.90
2023-02-19T02:16:52.993Z,26.92
2023-02-19T02:20:11.978Z,29.00
2023-02-19T02:23:24.248Z,23.17
2023-02-19T02:25:54.876Z,27.85
2023-02-19T02:28:39.581Z,30.33
2023-02-19T02:31:25.823Z,25.70
2023-02-19T02:34:12.303Z,21.55
2023-02-19T02:36:44.693Z,25.35
2023-02-19T02:39:38.998Z,23.27
2023-02-19T02:42:40.036Z,21.85
2023-02-19T02:45:41.615Z,25.67
2023-02-19T02:48:47.080Z,24.45
2023-02-19T02:51:21.209Z,24.63
2023-02-19T02:54:34.949Z,21.33
2023-02-19T02:57:09.559Z,20.48
2023-02-19T03:00:02.976Z,21.83
2023-02-19T03:02:44.164Z,24.27
2023-02-19T03:05:38.792Z,25.08
2023-02-19T03:08:19.512Z,23.98
2023-02-19T03:11:28.847Z,25.88
2023-02-19T03:14:25.166Z,23.02
2023-02-19T03:17:38.032Z,22.98
2023-02-19T03:23:44.638Z,23.30
2023-02-19T03:26:12.935Z,24.70
2023-02-19T03:29:08.568Z,22.38
2023-02-19T03:31:39.918Z,22.55
2023-02-19T03:34:14.486Z,23.38
2023-02-19T03:36:52.570Z,21.45
2023-02-19T03:39:22.423Z,22.17
2023-02-19T03:42:00.339Z,21.38
2023-02-19T03:45:11.024Z,19.40
2023-02-19T03:48:12.027Z,20.35
2023-02-19T03:51:23.834Z,17.48
2023-02-19T03:53:54.521Z,15.10
2023-02-19T03:56:45.048Z,14.00
2023-02-19T03:59:37.613Z,14.87
2023-02-19T04:02:19.699Z,12.73
2023-02-19T04:05:10.979Z,17.67
2023-02-19T04:07:45.076Z,18.08
2023-02-19T04:10:14.619Z,15.25
2023-02-19T04:13:01.500Z,11.60
2023-02-19T04:15:33.814Z,11.05
2023-02-19T04:18:27.053Z,8.45
2023-02-19T04:21:29.067Z,10.05
2023-02-19T04:24:19.458Z,8.35
2023-02-19T04:26:46.544Z,8.55
2023-02-19T04:29:34.087Z,9.95
2023-02-19T04:32:14.761Z,9.18
2023-02-19T04:34:41.769Z,8.20
2023-02-19T04:37:29.055Z,9.85
2023-02-19T04:40:10.454Z,9.18
2023-02-19T04:42:37.549Z,9.15
2023-02-19T04:45:04.745Z,11.02
2023-02-19T04:47:32.771Z,12.02
2023-02-19T04:49:59.702Z,12.13
2023-02-19T04:52:26.689Z,12.00
2023-02-19T04:54:53.557Z,13.68
2023-02-19T04:57:20.504Z,12.35
2023-02-19T04:59:47.934Z,13.20
2023-02-19T05:02:16.162Z,13.68
2023-02-19T05:04:45.297Z,14.25
2023-02-19T05:07:12.456Z,13.93
2023-02-19T05:09:59.052Z,15.90
2023-02-19T05:13:00.108Z,13.57
2023-02-19T05:15:40.732Z,13.40
2023-02-19T05:18:28.104Z,14.60
2023-02-19T05:21:29.059Z,14.57
2023-02-19T05:24:09.674Z,13.43
2023-02-19T05:26:36.761Z,14.23
2023-02-19T05:29:04.111Z,14.00
2023-02-19T05:31:35.833Z,13.35
2023-02-19T05:34:14.227Z,15.25
2023-02-19T05:36:41.663Z,13.52
2023-02-19T05:39:11.433Z,14.85
2023-02-19T05:41:58.083Z,14.55
2023-02-19T05:44:51.692Z,13.48
2023-02-19T05:47:18.573Z,16.67
2023-02-19T05:49:45.452Z,16.00
2023-02-19T05:52:13.433Z,17.45
2023-02-19T05:54:40.464Z,19.30
2023-02-19T05:57:08.751Z,17.63
2023-02-19T05:59:36.072Z,16.90
2023-02-19T06:02:03.045Z,20.70
2023-02-19T06:04:30.144Z,21.60
2023-02-19T06:06:57.082Z,18.52
2023-02-19T06:09:26.409Z,19.67
2023-02-19T06:11:54.611Z,19.67
2023-02-19T06:14:42.099Z,19.30
2023-02-19T06:17:46.239Z,20.75
2023-02-19T06:20:48.740Z,21.75
2023-02-19T06:23:29.670Z,21.02
2023-02-19T06:26:07.902Z,22.27
2023-02-19T06:28:35.210Z,22.70
2023-02-19T06:31:02.238Z,22.08
2023-02-19T06:33:29.869Z,23.38
2023-02-19T06:36:02.094Z,23.88
2023-02-19T06:38:30.082Z,23.50
2023-02-19T06:41:01.631Z,27.33
2023-02-19T06:43:49.161Z,24.45
2023-02-19T06:46:29.875Z,23.52
2023-02-19T06:48:56.835Z,25.88
2023-02-19T06:51:27.565Z,22.77
2023-02-19T06:53:54.609Z,25.50
2023-02-19T06:56:31.190Z,25.35
2023-02-19T06:59:21.107Z,23.40
2023-02-19T07:02:01.664Z,26.80
2023-02-19T07:04:28.686Z,29.42
2023-02-19T07:06:55.611Z,30.98
2023-02-19T07:09:23.480Z,36.72
2023-02-19T07:11:50.412Z,31.77
2023-02-19T07:14:17.669Z,25.27
2023-02-19T07:17:05.174Z,27.95
2023-02-19T07:20:06.141Z,26.88
2023-02-19T07:22:51.296Z,23.27
2023-02-19T07:25:18.267Z,24.40
2023-02-19T07:27:45.209Z,26.77
2023-02-19T07:30:12.480Z,26.27
2023-02-19T07:32:42.779Z,26.02
2023-02-19T07:35:09.813Z,25.92
2023-02-19T07:37:57.160Z,25.50
2023-02-19T07:40:38.002Z,25.73
2023-02-19T07:43:05.018Z,24.30
2023-02-19T07:45:32.046Z,25.33
2023-02-19T07:47:59.165Z,25.02
2023-02-19T07:50:26.087Z,25.92
2023-02-19T07:52:53.080Z,25.02
2023-02-19T07:55:20.027Z,26.60
2023-02-19T07:57:46.921Z,24.50
2023-02-19T08:00:14.223Z,22.15
2023-02-19T08:03:00.210Z,24.10
2023-02-19T08:05:36.889Z,23.52
2023-02-19T08:08:07.032Z,26.58
2023-02-19T08:11:12.433Z,22.50
2023-02-19T08:13:53.512Z,25.85
2023-02-19T08:16:43.385Z,27.95
2023-02-19T08:19:44.147Z,26.77
2023-02-19T08:22:45.281Z,26.40
2023-02-19T08:25:16.383Z,24.00
2023-02-19T08:27:43.328Z,24.55
2023-02-19T08:30:10.846Z,27.70
2023-02-19T08:32:37.781Z,27.20
2023-02-19T08:35:05.191Z,23.77
2023-02-19T08:37:33.470Z,22.38
2023-02-19T08:40:00.354Z,19.80
2023-02-19T08:42:47.197Z,21.35
2023-02-19T08:45:27.873Z,21.67
2023-02-19T08:47:54.791Z,17.77
2023-02-19T08:50:22.581Z,21.00
2023-02-19T08:52:49.458Z,20.67
2023-02-19T08:55:16.396Z,20.42
2023-02-19T08:57:43.393Z,18.90
2023-02-19T09:00:11.368Z,21.02
2023-02-19T09:02:38.339Z,17.65
2023-02-19T09:05:08.783Z,17.30
2023-02-19T09:07:50.316Z,18.23
2023-02-19T09:10:31.031Z,17.25
2023-02-19T09:12:58.065Z,18.80
2023-02-19T09:15:25.032Z,18.05
2023-02-19T09:18:12.185Z,20.70
2023-02-19T09:21:19.200Z,18.88
2023-02-19T09:26:27.245Z,17.77
2023-02-19T09:28:54.846Z,18.08
2023-02-19T09:31:21.920Z,19.02
2023-02-19T09:33:49.030Z,19.05
2023-02-19T09:36:17.063Z,17.90
2023-02-19T09:38:44.366Z,18.88
2023-02-19T09:41:23.881Z,18.05
2023-02-19T09:43:51.293Z,17.42
2023-02-19T09:46:27.632Z,19.00
2023-02-19T09:49:18.414Z,21.55
2023-02-19T09:52:10.222Z,18.60
2023-02-19T09:54:51.720Z,18.35
2023-02-19T09:57:21.494Z,22.75
2023-02-19T09:59:51.853Z,19.88
2023-02-19T10:02:24.422Z,21.77
2023-02-19T10:04:52.761Z,18.95
2023-02-19T10:07:22.026Z,21.60
2023-02-19T10:09:55.811Z,20.45
2023-02-19T10:12:28.611Z,21.77
2023-02-19T10:15:25.256Z,21.83
2023-02-19T10:18:26.244Z,22.98
2023-02-19T10:21:37.576Z,22.05
2023-02-19T10:24:25.878Z,22.83
2023-02-19T10:26:56.308Z,24.30
2023-02-19T10:29:24.856Z,21.55
2023-02-19T10:32:12.913Z,22.83
2023-02-19T10:34:39.966Z,22.80
2023-02-19T10:37:13.610Z,25.42
2023-02-19T10:39:50.849Z,23.65
2023-02-19T10:42:23.347Z,26.33
2023-02-19T10:44:55.732Z,27.98
2023-02-19T10:48:00.266Z,27.30
2023-02-19T10:54:12.433Z,25.10
2023-02-19T10:57:15.763Z,27.52
2023-02-19T10:59:51.408Z,24.65
2023-02-19T11:02:21.700Z,28.33
2023-02-19T11:05:19.995Z,26.70
2023-02-19T11:08:24.405Z,25.70
2023-02-19T11:11:06.964Z,27.95
2023-02-19T11:13:38.098Z,24.90
2023-02-19T11:16:18.452Z,24.83
2023-02-19T11:19:19.361Z,27.02
2023-02-19T11:22:02.459Z,25.35
2023-02-19T11:24:37.649Z,27.33
2023-02-19T11:27:06.727Z,26.25
2023-02-19T11:29:36.972Z,28.52
2023-02-19T11:32:27.562Z,25.50
2023-02-19T11:35:15.468Z,25.77
2023-02-19T11:37:56.918Z,24.52
2023-02-19T11:40:35.573Z,25.83
2023-02-19T11:43:35.031Z,25.40
2023-02-19T11:46:40.704Z,23.73
2023-02-19T11:49:36.300Z,25.45
2023-02-19T11:52:55.299Z,23.92
2023-02-19T11:56:07.004Z,24.20
2023-02-19T11:58:43.206Z,24.27
2023-02-19T12:01:22.363Z,26.67
2023-02-19T12:04:02.324Z,25.63
2023-02-19T12:06:51.651Z,26.60
2023-02-19T12:09:21.485Z,24.83
2023-02-19T12:12:26.063Z,25.65
2023-02-19T12:14:58.809Z,23.13
2023-02-19T12:18:09.319Z,25.15
2023-02-19T12:21:40.312Z,26.35
2023-02-19T12:24:59.108Z,24.55
2023-02-19T12:30:28.103Z,23.65
2023-02-19T12:33:11.636Z,21.88
2023-02-19T12:36:30.400Z,24.00
2023-02-19T12:39:32.820Z,24.85
2023-02-19T12:58:17.844Z,21.65
2023-02-19T13:10:18.237Z,16.42
2023-02-19T13:12:49.419Z,18.30
2023-02-19T13:36:15.006Z,17.73
2023-02-19T13:48:40.711Z,18.90
2023-02-19T13:51:21.688Z,17.60
2023-02-19T13:53:57.442Z,17.98
2023-02-19T13:56:36.551Z,17.08
2023-02-19T13:59:13.674Z,18.50
2023-02-19T14:01:49.918Z,16.90
2023-02-19T14:04:25.813Z,18.65
2023-02-19T14:07:12.865Z,17.65
2023-02-19T14:09:45.707Z,18.40
2023-02-19T14:12:29.349Z,17.23
2023-02-19T14:15:55.378Z,16.75
2023-02-19T14:18:57.369Z,17.77
2023-02-19T14:21:44.095Z,20.60
2023-02-19T14:24:16.274Z,22.30
2023-02-19T14:26:43.618Z,23.00
2023-02-19T14:29:14.756Z,21.40
2023-02-19T14:31:45.991Z,22.90
2023-02-19T14:34:22.964Z,22.90
2023-02-19T14:37:01.733Z,25.60
2023-02-19T14:39:40.482Z,25.08
2023-02-19T14:42:16.880Z,25.58
2023-02-19T14:44:52.445Z,24.75
2023-02-19T14:47:25.560Z,27.15
2023-02-19T14:50:16.365Z,24.73
2023-02-19T14:53:04.802Z,26.75
2023-02-19T14:55:42.785Z,27.63
2023-02-19T14:58:47.357Z,25.40
2023-02-19T15:01:42.423Z,26.05
2023-02-19T15:04:49.413Z,27.15
2023-02-19T15:07:51.912Z,26.75
2023-02-19T15:10:39.286Z,29.00
2023-02-19T15:13:12.399Z,27.30
2023-02-19T15:15:45.212Z,22.80
2023-02-19T15:18:36.502Z,25.13
2023-02-19T15:21:46.449Z,24.98
2023-02-19T15:24:28.305Z,24.38
2023-02-19T15:27:15.605Z,24.95
2023-02-19T15:29:56.070Z,25.33
2023-02-19T15:32:28.417Z,25.92
2023-02-19T15:34:58.275Z,26.58
2023-02-19T15:37:49.479Z,25.02
2023-02-19T15:40:31.565Z,24.58
2023-02-19T15:43:00.905Z,24.77
2023-02-19T15:45:47.374Z,26.40
2023-02-19T15:48:23.067Z,25.17
2023-02-19T15:50:57.098Z,25.08
2023-02-19T15:53:29.690Z,25.08
2023-02-19T15:56:09.766Z,24.98
2023-02-19T15:59:14.416Z,26.15
2023-02-19T16:01:55.204Z,24.73
2023-02-19T16:04:22.445Z,27.10
2023-02-19T16:06:55.558Z,26.52
2023-02-19T16:09:28.901Z,24.90
2023-02-19T16:11:58.550Z,25.43
2023-02-19T16:14:36.632Z,26.75
2023-02-19T16:17:23.443Z,24.73
2023-02-19T16:20:38.427Z,25.30
2023-02-19T16:23:24.197Z,26.58
2023-02-19T16:26:04.742Z,26.67
2023-02-19T16:28:37.982Z,27.17
2023-02-19T16:31:24.908Z,26.10
2023-02-19T16:34:30.215Z,26.55
2023-02-19T16:36:57.241Z,27.70
2023-02-19T16:39:24.788Z,26.52
2023-02-19T16:41:51.599Z,28.10
2023-02-19T16:44:21.499Z,29.88
2023-02-19T16:46:54.939Z,29.17
2023-02-19T16:49:23.648Z,28.77
2023-02-19T16:51:51.905Z,28.70
2023-02-19T16:54:19.865Z,29.83
2023-02-19T16:57:02.721Z,27.73
2023-02-19T16:59:43.279Z,28.52
2023-02-19T17:02:17.747Z,29.17
2023-02-19T17:05:05.285Z,30.13
2023-02-19T17:08:06.553Z,31.30
2023-02-19T17:10:51.713Z,33.38
2023-02-19T17:20:59.508Z,31.50
2023-02-19T17:45:43.926Z,33.97
2023-02-19T17:49:17.864Z,34.40
2023-02-19T17:53:30.918Z,32.28
2023-02-19T17:56:27.971Z,33.63
2023-02-19T18:03:19.656Z,35.38
2023-02-19T18:06:29.516Z,34.40
2023-02-19T18:12:40.814Z,33.55
2023-02-19T18:19:34.906Z,34.88
2023-02-19T18:22:48.057Z,34.08
2023-02-19T18:25:16.448Z,33.97
2023-02-19T18:27:43.758Z,35.75
2023-02-19T18:30:11.920Z,36.25
2023-02-19T18:32:39.104Z,34.90
2023-02-19T18:35:39.054Z,38.05
2023-02-19T18:38:06.494Z,40.22
2023-02-19T18:40:33.440Z,42.75
2023-02-19T18:43:00.509Z,40.75
2023-02-19T18:45:29.682Z,36.88
2023-02-19T18:47:56.832Z,41.20
2023-02-19T18:50:24.050Z,36.63
2023-02-19T18:52:51.616Z,38.38
2023-02-19T18:55:31.625Z,38.70
2023-02-19T18:58:26.545Z,37.30
2023-02-19T19:01:08.569Z,38.70
2023-02-19T19:03:35.573Z,38.28
2023-02-19T19:06:02.706Z,39.38
2023-02-19T19:08:30.762Z,37.75
2023-02-19T19:10:57.751Z,37.08
2023-02-19T19:13:25.519Z,38.75
2023-02-19T19:15:52.479Z,38.60
2023-02-19T19:18:39.561Z,38.10
2023-02-19T19:21:40.541Z,35.20
2023-02-19T19:24:22.921Z,36.70
2023-02-19T19:26:51.143Z,35.72
2023-02-19T19:29:22.095Z,40.53
2023-02-19T19:31:50.130Z,40.67
2023-02-19T19:34:17.792Z,40.22
2023-02-19T19:36:45.602Z,34.92
2023-02-19T19:39:13.269Z,42.40
2023-02-19T19:41:40.424Z,37.80
2023-02-19T19:44:08.737Z,41.03
2023-02-19T19:46:42.370Z,41.03
2023-02-19T19:49:33.560Z,39.22
2023-02-19T19:55:16.181Z,39.03
2023-02-19T19:57:43.247Z,33.00
2023-02-19T20:00:14.692Z,42.08
2023-02-19T20:02:41.683Z,49.22
2023-02-19T20:05:08.673Z,47.33
2023-02-19T20:07:35.656Z,51.92
2023-02-19T20:10:02.577Z,57.10
2023-02-19T20:12:29.494Z,56.50
2023-02-19T20:15:16.554Z,63.92
2023-02-19T20:18:17.581Z,63.80
2023-02-19T20:21:18.567Z,67.38
2023-02-19T20:23:59.122Z,75.22
2023-02-19T20:26:28.480Z,76.28
2023-02-19T20:28:55.940Z,78.28
2023-02-19T20:31:23.291Z,73.72
2023-02-19T20:33:51.201Z,80.65
2023-02-19T20:36:20.184Z,86.03
2023-02-19T20:38:49.442Z,89.85
2023-02-19T20:41:16.567Z,93.15
2023-02-19T20:44:03.569Z,92.57
2023-02-19T20:47:05.587Z,90.82
2023-02-19T20:50:06.577Z,97.65
2023-02-19T20:52:47.209Z,97.63
2023-02-19T20:55:14.131Z,97.25
2023-02-19T20:57:41.188Z,103.60
2023-02-19T21:00:09.557Z,103.80
2023-02-19T21:02:36.610Z,101.03
2023-02-19T21:05:04.488Z,96.78
2023-02-19T21:07:31.455Z,105.53
2023-02-19T21:09:58.323Z,99.88
2023-02-19T21:12:25.244Z,93.50
2023-02-19T21:14:52.372Z,108.75
2023-02-19T21:17:39.613Z,113.68
2023-02-19T21:20:40.615Z,103.90
2023-02-19T21:23:21.080Z,90.60
2023-02-19T21:25:49.116Z,114.70
2023-02-19T21:28:16.098Z,112.20
2023-02-19T21:30:43.026Z,98.70
2023-02-19T21:33:09.991Z,115.85
2023-02-19T21:35:56.602Z,111.75
2023-02-19T21:38:37.194Z,114.75
2023-02-19T21:41:04.602Z,110.10
2023-02-19T21:43:51.606Z,112.32
2023-02-19T21:46:35.085Z,111.25
2023-02-19T21:49:21.614Z,111.80
2023-02-19T21:52:02.236Z,115.22
2023-02-19T21:54:29.142Z,114.22
2023-02-19T21:56:56.076Z,119.30
2023-02-19T21:59:23.578Z,110.60
2023-02-19T22:01:50.821Z,124.65
2023-02-19T22:04:20.839Z,116.40
2023-02-19T22:06:47.825Z,97.97
2023-02-19T22:09:15.055Z,119.70
2023-02-19T22:11:42.116Z,120.20
2023-02-19T22:14:10.261Z,108.65
2023-02-19T22:16:58.632Z,124.30
2023-02-19T22:19:59.670Z,106.50
2023-02-19T22:22:53.344Z,101.78
2023-02-19T22:25:20.257Z,93.13
2023-02-19T22:27:48.958Z,121.13
2023-02-19T22:30:35.769Z,128.40
2023-02-19T22:33:16.244Z,115.90
2023-02-19T22:35:43.304Z,116.30
2023-02-19T22:38:10.335Z,122.10
2023-02-19T22:40:37.476Z,126.28
2023-02-19T22:43:04.434Z,126.65
2023-02-19T22:45:31.514Z,131.70
2023-02-19T22:47:58.407Z,117.13
2023-02-19T22:50:26.606Z,117.97
2023-02-19T22:52:56.401Z,122.32
2023-02-19T22:55:29.213Z,135.50
2023-02-19T22:58:16.629Z,133.90
2023-02-19T23:00:57.331Z,126.07
2023-02-19T23:03:24.529Z,128.02
2023-02-19T23:06:11.842Z,128.15
2023-02-19T23:09:04.051Z,129.20
2023-02-19T23:11:34.517Z,124.53
2023-02-19T23:14:01.764Z,124.78
2023-02-19T23:16:29.568Z,127.03
2023-02-19T23:19:21.657Z,121.25
2023-02-19T23:22:02.260Z,133.57
2023-02-19T23:24:29.305Z,128.65
2023-02-19T23:27:16.661Z,135.23
2023-02-19T23:30:17.669Z,129.75
2023-02-19T23:33:18.653Z,132.07
2023-02-19T23:35:59.260Z,131.10
2023-02-19T23:38:26.158Z,132.48
2023-02-19T23:40:53.094Z,134.32
2023-02-19T23:43:21.155Z,132.80
2023-02-19T23:45:48.273Z,129.25
2023-02-19T23:48:15.401Z,130.07
2023-02-19T23:50:42.270Z,130.50
2023-02-19T23:53:09.566Z,137.77
2023-02-19T23:55:36.562Z,129.13
2023-02-19T23:58:03.469Z,131.93
